createdAt,value
2023-03-01T00:01:43.739Z,-4.11
2023-03-01T00:03:46.426Z,-4.13
2023-03-01T00:05:48.869Z,-4.12
2023-03-01T00:07:54.300Z,-4.10
2023-03-01T00:09:56.238Z,-4.13
2023-03-01T00:11:58.096Z,-4.23
2023-03-01T00:14:07.963Z,-4.15
2023-03-01T00:16:16.722Z,-4.16
2023-03-01T00:18:18.648Z,-4.20
2023-03-01T00:20:21.017Z,-4.21
2023-03-01T00:22:23.043Z,-4.19
2023-03-01T00:24:24.992Z,-4.27
2023-03-01T00:26:27.510Z,-4.13
2023-03-01T00:28:29.406Z,-4.12
2023-03-01T00:30:31.466Z,-4.03
2023-03-01T00:32:33.397Z,-4.09
2023-03-01T00:34:36.507Z,-4.04
2023-03-01T00:36:38.985Z,-4.04
2023-03-01T00:38:43.841Z,-4.03
2023-03-01T00:40:45.828Z,-3.90
2023-03-01T00:42:47.812Z,-4.02
2023-03-01T00:44:49.789Z,-3.96
2023-03-01T00:46:51.779Z,-4.02
2023-03-01T00:48:54.639Z,-3.97
2023-03-01T00:50:57.554Z,-4.05
2023-03-01T00:52:59.544Z,-4.00
2023-03-01T00:55:01.539Z,-4.02
2023-03-01T00:57:03.689Z,-4.00
2023-03-01T00:59:05.582Z,-3.96
2023-03-01T01:01:22.447Z,-4.06
2023-03-01T01:03:26.109Z,-4.15
2023-03-01T01:05:28.017Z,-4.08
2023-03-01T01:07:29.866Z,-4.09
2023-03-01T01:09:31.797Z,-4.04
2023-03-01T01:11:36.353Z,-4.04
2023-03-01T01:13:39.565Z,-4.11
2023-03-01T01:15:41.652Z,-4.06
2023-03-01T01:17:46.496Z,-4.25
2023-03-01T01:19:48.443Z,-4.14
2023-03-01T01:21:50.898Z,-4.11
2023-03-01T01:23:53.186Z,-4.05
2023-03-01T01:25:55.055Z,-4.03
2023-03-01T01:27:57.000Z,-4.06
2023-03-01T01:29:58.914Z,-4.03
2023-03-01T01:32:00.856Z,-3.96
2023-03-01T01:34:04.606Z,-4.00
2023-03-01T01:36:08.218Z,-3.94
2023-03-01T01:38:11.154Z,-4.13
2023-03-01T01:40:13.672Z,-4.08
2023-03-01T01:42:21.884Z,-4.06
2023-03-01T01:44:28.668Z,-4.08
2023-03-01T01:46:33.653Z,-4.08
2023-03-01T01:48:43.087Z,-4.22
2023-03-01T01:50:48.824Z,-4.21
2023-03-01T01:52:56.119Z,-4.12
2023-03-01T01:55:07.215Z,-4.18
2023-03-01T01:57:21.608Z,-4.21
2023-03-01T01:59:25.748Z,-4.11
2023-03-01T02:01:28.135Z,-4.26
2023-03-01T02:03:34.863Z,-4.31
2023-03-01T02:05:54.933Z,-4.22
2023-03-01T02:07:59.398Z,-4.39
2023-03-01T02:10:02.175Z,-4.34
2023-03-01T02:12:06.024Z,-4.40
2023-03-01T02:14:08.040Z,-4.31
2023-03-01T02:16:12.222Z,-4.33
2023-03-01T02:18:18.076Z,-4.39
2023-03-01T02:20:19.977Z,-4.42
2023-03-01T02:22:31.673Z,-4.35
2023-03-01T02:24:39.763Z,-4.34
2023-03-01T02:26:49.707Z,-4.41
2023-03-01T02:28:52.838Z,-4.51
2023-03-01T02:31:13.899Z,-4.47
2023-03-01T02:33:15.874Z,-4.50
2023-03-01T02:35:20.377Z,-4.44
2023-03-01T02:37:25.941Z,-4.48
2023-03-01T02:39:32.836Z,-4.52
2023-03-01T02:41:39.076Z,-4.42
2023-03-01T02:43:41.003Z,-4.45
2023-03-01T02:45:53.962Z,-4.40
2023-03-01T02:47:57.625Z,-4.48
2023-03-01T02:49:59.528Z,-4.41
2023-03-01T02:52:25.513Z,-4.41
2023-03-01T02:54:41.120Z,-4.25
2023-03-01T02:56:45.444Z,-4.45
2023-03-01T02:58:49.237Z,-4.47
2023-03-01T03:00:51.854Z,-4.57
2023-03-01T03:02:58.015Z,-4.48
2023-03-01T03:04:59.935Z,-4.55
2023-03-01T03:07:01.920Z,-4.55
2023-03-01T03:09:05.252Z,-4.45
2023-03-01T03:11:08.142Z,-4.39
2023-03-01T03:13:13.406Z,-4.44
2023-03-01T03:15:15.315Z,-4.36
2023-03-01T03:17:17.170Z,-4.35
2023-03-01T03:19:20.813Z,-4.29
2023-03-01T03:21:22.780Z,-4.45
2023-03-01T03:23:24.972Z,-4.40
2023-03-01T03:25:30.099Z,-4.41
2023-03-01T03:27:33.134Z,-4.23
2023-03-01T03:29:36.126Z,-4.27
2023-03-01T03:31:38.176Z,-4.41
2023-03-01T03:33:40.242Z,-4.39
2023-03-01T03:35:48.329Z,-4.39
2023-03-01T03:38:03.160Z,-4.50
2023-03-01T03:40:16.553Z,-4.34
2023-03-01T03:42:18.660Z,-4.25
2023-03-01T03:44:21.244Z,-4.33
2023-03-01T03:46:23.271Z,-4.30
2023-03-01T03:48:28.968Z,-4.18
2023-03-01T03:50:31.123Z,-4.29
2023-03-01T03:52:33.122Z,-4.35
2023-03-01T03:54:35.082Z,-4.30
2023-03-01T03:56:48.404Z,-4.22
2023-03-01T03:59:02.783Z,-4.24
2023-03-01T04:01:13.841Z,-4.19
2023-03-01T04:03:27.185Z,-4.30
2023-03-01T04:05:29.722Z,-4.22
2023-03-01T04:07:31.660Z,-4.24
2023-03-01T04:09:33.619Z,-4.15
2023-03-01T04:11:36.050Z,-4.19
2023-03-01T04:13:38.168Z,-4.18
2023-03-01T04:15:41.940Z,-4.23
2023-03-01T04:17:45.725Z,-4.17
2023-03-01T04:19:49.920Z,-4.15
2023-03-01T04:21:51.887Z,-4.12
2023-03-01T04:23:53.898Z,-4.15
2023-03-01T04:25:58.128Z,-4.20
2023-03-01T04:28:00.121Z,-4.22
2023-03-01T04:30:02.949Z,-4.20
2023-03-01T04:32:06.147Z,-4.21
2023-03-01T04:34:08.061Z,-4.18
2023-03-01T04:36:11.950Z,-4.10
2023-03-01T04:38:13.928Z,-4.18
2023-03-01T04:40:17.797Z,-4.15
2023-03-01T04:42:20.311Z,-4.13
2023-03-01T04:44:22.230Z,-4.12
2023-03-01T04:46:24.251Z,-4.18
2023-03-01T04:48:26.143Z,-4.05
2023-03-01T04:50:28.147Z,-4.10
2023-03-01T04:52:30.135Z,-4.22
2023-03-01T04:54:36.277Z,-4.01
2023-03-01T04:56:38.289Z,-4.01
2023-03-01T04:58:40.378Z,-4.02
2023-03-01T05:00:42.304Z,-4.06
2023-03-01T05:02:44.497Z,-4.02
2023-03-01T05:04:46.412Z,-3.91
2023-03-01T05:06:48.449Z,-3.88
2023-03-01T05:08:50.379Z,-3.85
2023-03-01T05:10:54.237Z,-3.89
2023-03-01T05:12:58.543Z,-3.99
2023-03-01T05:15:00.475Z,-3.83
2023-03-01T05:17:05.102Z,-3.90
2023-03-01T05:19:16.529Z,-3.82
2023-03-01T05:21:18.628Z,-3.90
2023-03-01T05:23:20.495Z,-3.80
2023-03-01T05:25:22.853Z,-3.91
2023-03-01T05:27:24.789Z,-3.79
2023-03-01T05:29:28.882Z,-3.81
2023-03-01T05:31:32.116Z,-3.92
2023-03-01T05:33:34.200Z,-3.96
2023-03-01T05:35:36.230Z,-3.85
2023-03-01T05:37:38.252Z,-3.84
2023-03-01T05:39:40.914Z,-3.79
2023-03-01T05:41:42.833Z,-3.81
2023-03-01T05:43:46.211Z,-3.75
2023-03-01T05:45:48.490Z,-3.76
2023-03-01T05:47:51.605Z,-3.75
2023-03-01T05:49:58.807Z,-3.70
2023-03-01T05:52:00.878Z,-3.70
2023-03-01T05:54:02.869Z,-3.75
2023-03-01T05:56:06.042Z,-3.60
2023-03-01T05:58:15.312Z,-3.59
2023-03-01T06:00:19.809Z,-3.54
2023-03-01T06:02:21.769Z,-3.55
2023-03-01T06:04:23.708Z,-3.54
2023-03-01T06:06:28.771Z,-3.45
2023-03-01T06:08:31.178Z,-3.41
2023-03-01T06:10:33.463Z,-3.32
2023-03-01T06:12:36.798Z,-3.36
2023-03-01T06:14:39.119Z,-3.25
2023-03-01T06:16:41.115Z,-3.26
2023-03-01T06:18:43.341Z,-3.19
2023-03-01T06:20:45.253Z,-3.09
2023-03-01T06:22:48.262Z,-3.02
2023-03-01T06:24:50.292Z,-2.91
2023-03-01T06:26:54.324Z,-2.78
2023-03-01T06:28:56.378Z,-2.81
2023-03-01T06:31:00.344Z,-2.60
2023-03-01T06:33:04.390Z,-2.66
2023-03-01T06:35:06.876Z,-2.54
2023-03-01T06:37:11.227Z,-2.44
2023-03-01T06:39:13.172Z,-2.37
2023-03-01T06:41:15.145Z,-2.27
2023-03-01T06:43:17.155Z,-2.19
2023-03-01T06:45:21.445Z,-2.17
2023-03-01T06:47:23.388Z,-1.99
2023-03-01T06:49:25.407Z,-1.94
2023-03-01T06:51:27.649Z,-1.94
2023-03-01T06:53:30.683Z,-1.73
2023-03-01T06:55:33.635Z,-1.59
2023-03-01T06:57:36.525Z,-1.60
2023-03-01T06:59:41.375Z,-1.48
2023-03-01T07:01:43.667Z,-1.48
2023-03-01T07:03:45.652Z,-1.46
2023-03-01T07:05:50.822Z,-1.55
2023-03-01T07:07:54.990Z,-1.44
2023-03-01T07:09:56.990Z,-1.08
2023-03-01T07:11:58.969Z,-1.01
2023-03-01T07:14:01.322Z,-1.13
2023-03-01T07:16:03.404Z,-0.71
2023-03-01T07:18:05.361Z,-0.72
2023-03-01T07:20:09.010Z,-0.74
2023-03-01T07:22:11.079Z,-0.58
2023-03-01T07:24:13.191Z,-0.47
2023-03-01T07:26:16.977Z,-0.35
2023-03-01T07:28:20.042Z,-0.21
2023-03-01T07:30:31.664Z,0.14
2023-03-01T07:32:33.960Z,0.10
2023-03-01T07:34:36.030Z,0.18
2023-03-01T07:36:38.806Z,0.50
2023-03-01T07:38:40.806Z,0.73
2023-03-01T07:40:42.785Z,0.57
2023-03-01T07:42:45.931Z,0.76
2023-03-01T07:44:47.853Z,0.76
2023-03-01T07:46:50.936Z,0.85
2023-03-01T07:48:55.884Z,1.06
2023-03-01T07:51:06.127Z,1.09
2023-03-01T07:53:08.132Z,1.15
2023-03-01T07:55:10.303Z,1.41
2023-03-01T07:57:16.208Z,1.93
2023-03-01T07:59:19.338Z,1.61
2023-03-01T08:01:22.941Z,1.58
2023-03-01T08:03:28.380Z,2.11
2023-03-01T08:05:30.428Z,2.18
2023-03-01T08:07:32.454Z,2.04
2023-03-01T08:09:36.915Z,2.14
2023-03-01T08:11:38.900Z,2.06
2023-03-01T08:13:41.418Z,2.73
2023-03-01T08:15:43.605Z,3.35
2023-03-01T08:17:46.691Z,3.07
2023-03-01T08:19:48.644Z,3.65
2023-03-01T08:21:50.878Z,3.10
2023-03-01T08:23:52.841Z,3.44
2023-03-01T08:25:55.861Z,3.22
2023-03-01T08:27:57.844Z,3.29
2023-03-01T08:29:59.922Z,3.62
2023-03-01T08:32:02.087Z,4.10
2023-03-01T08:34:07.315Z,4.38
2023-03-01T08:36:09.419Z,4.12
2023-03-01T08:38:11.466Z,4.07
2023-03-01T08:40:14.838Z,4.50
2023-03-01T08:42:16.859Z,4.27
2023-03-01T08:44:18.963Z,4.52
2023-03-01T08:46:21.009Z,4.33
2023-03-01T08:48:23.044Z,4.72
2023-03-01T08:50:25.711Z,3.86
2023-03-01T08:52:29.076Z,4.12
2023-03-01T08:54:31.673Z,4.56
2023-03-01T08:56:34.718Z,4.19
2023-03-01T08:58:37.177Z,4.73
2023-03-01T09:00:39.751Z,4.67
2023-03-01T09:02:41.776Z,4.70
2023-03-01T09:04:44.151Z,4.67
2023-03-01T09:06:46.441Z,5.22
2023-03-01T09:08:50.499Z,5.37
2023-03-01T09:10:55.657Z,5.22
2023-03-01T09:12:57.940Z,6.02
2023-03-01T09:14:59.878Z,6.20
2023-03-01T09:17:04.561Z,5.97
2023-03-01T09:19:06.542Z,5.15
2023-03-01T09:21:22.583Z,5.86
2023-03-01T09:23:27.886Z,5.36
2023-03-01T09:25:29.939Z,5.49
2023-03-01T09:27:31.885Z,6.13
2023-03-01T09:29:34.854Z,6.44
2023-03-01T09:31:37.828Z,6.56
2023-03-01T09:33:40.978Z,7.12
2023-03-01T09:35:50.101Z,6.59
2023-03-01T09:37:52.723Z,6.14
2023-03-01T09:39:54.674Z,5.84
2023-03-01T09:42:03.488Z,5.31
2023-03-01T09:44:49.247Z,5.37
2023-03-01T09:46:52.469Z,5.92
2023-03-01T09:49:05.746Z,6.05
2023-03-01T09:51:14.246Z,5.75
2023-03-01T09:53:34.610Z,5.16
2023-03-01T09:56:13.411Z,5.30
2023-03-01T09:58:46.180Z,5.56
2023-03-01T10:00:51.164Z,5.93
2023-03-01T10:03:12.510Z,5.99
2023-03-01T10:05:29.704Z,6.00
2023-03-01T10:07:42.467Z,5.94
2023-03-01T10:09:46.563Z,5.98
2023-03-01T10:11:55.939Z,6.47
2023-03-01T10:14:08.423Z,5.99
2023-03-01T10:16:26.738Z,6.46
2023-03-01T10:18:33.037Z,6.29
2023-03-01T10:20:47.090Z,6.39
2023-03-01T10:22:59.603Z,6.37
2023-03-01T10:25:04.635Z,6.50
2023-03-01T10:27:13.803Z,6.35
2023-03-01T10:29:16.576Z,6.40
2023-03-01T10:31:31.178Z,6.18
2023-03-01T10:33:38.684Z,6.47
2023-03-01T10:35:42.320Z,6.39
2023-03-01T10:38:11.472Z,6.39
2023-03-01T10:40:16.522Z,6.38
2023-03-01T10:42:26.581Z,6.43
2023-03-01T10:44:49.323Z,6.39
2023-03-01T10:47:01.806Z,6.39
2023-03-01T10:49:23.750Z,6.52
2023-03-01T10:51:25.667Z,6.75
2023-03-01T10:53:32.012Z,6.72
2023-03-01T10:55:40.468Z,6.52
2023-03-01T10:57:43.359Z,6.79
2023-03-01T10:59:45.282Z,6.54
2023-03-01T11:01:47.372Z,6.65
2023-03-01T11:04:07.541Z,6.86
2023-03-01T11:06:15.359Z,6.73
2023-03-01T11:08:33.786Z,6.89
2023-03-01T11:10:37.701Z,6.68
2023-03-01T11:12:39.889Z,6.63
2023-03-01T11:14:54.428Z,6.53
2023-03-01T11:17:19.374Z,6.46
2023-03-01T11:19:22.836Z,6.50
2023-03-01T11:21:28.039Z,6.60
2023-03-01T11:23:32.048Z,6.57
2023-03-01T11:25:38.086Z,6.18
2023-03-01T11:27:44.800Z,6.32
2023-03-01T11:29:53.741Z,6.35
2023-03-01T11:31:59.656Z,6.26
2023-03-01T11:34:12.424Z,5.94
2023-03-01T11:36:29.769Z,5.84
2023-03-01T11:38:35.896Z,5.75
2023-03-01T11:41:08.416Z,5.83
2023-03-01T11:43:19.189Z,5.70
2023-03-01T11:45:25.277Z,5.50
2023-03-01T11:47:43.766Z,5.65
2023-03-01T11:50:15.936Z,5.45
2023-03-01T11:52:44.102Z,5.61
2023-03-01T11:54:48.847Z,5.85
2023-03-01T11:57:09.028Z,5.94
2023-03-01T11:59:48.704Z,5.87
2023-03-01T12:01:56.619Z,5.87
2023-03-01T12:04:19.965Z,6.10
2023-03-01T12:06:28.163Z,6.09
2023-03-01T12:08:37.090Z,6.08
2023-03-01T12:10:51.290Z,6.10
2023-03-01T12:13:30.465Z,6.12
2023-03-01T12:16:10.504Z,6.04
2023-03-01T12:18:46.047Z,6.18
2023-03-01T12:21:19.161Z,6.18
2023-03-01T12:23:53.851Z,6.07
2023-03-01T12:26:21.819Z,6.30
2023-03-01T12:28:47.638Z,5.97
2023-03-01T12:31:29.402Z,5.99
2023-03-01T12:33:59.682Z,6.18
2023-03-01T12:36:23.418Z,6.14
2023-03-01T12:38:39.257Z,6.23
2023-03-01T12:40:56.844Z,6.25
2023-03-01T12:43:46.387Z,6.04
2023-03-01T12:45:57.279Z,5.95
2023-03-01T12:48:14.622Z,5.97
2023-03-01T12:50:24.092Z,6.15
2023-03-01T12:52:50.766Z,6.05
2023-03-01T12:54:57.334Z,6.31
2023-03-01T12:57:38.338Z,6.21
2023-03-01T13:00:02.056Z,6.06
2023-03-01T13:02:24.411Z,5.98
2023-03-01T13:04:46.862Z,6.08
2023-03-01T13:07:07.181Z,6.16
2023-03-01T13:09:13.328Z,6.10
2023-03-01T13:11:24.092Z,5.82
2023-03-01T13:13:28.202Z,6.08
2023-03-01T13:15:31.260Z,6.00
2023-03-01T13:17:43.749Z,6.10
2023-03-01T13:20:00.092Z,6.02
2023-03-01T13:22:29.976Z,5.88
2023-03-01T13:24:43.034Z,5.89
2023-03-01T13:27:26.486Z,5.77
2023-03-01T13:29:28.638Z,5.81
2023-03-01T13:31:30.555Z,5.91
2023-03-01T13:33:32.461Z,5.88
2023-03-01T13:35:45.864Z,5.97
2023-03-01T13:37:48.076Z,5.94
2023-03-01T13:39:50.265Z,5.87
2023-03-01T13:41:57.228Z,6.08
2023-03-01T13:44:00.744Z,6.02
2023-03-01T13:46:29.262Z,5.88
2023-03-01T13:48:34.578Z,5.55
2023-03-01T13:50:47.884Z,5.53
2023-03-01T13:53:00.778Z,5.57
2023-03-01T13:55:08.226Z,5.66
2023-03-01T13:57:22.750Z,5.56
2023-03-01T13:59:27.481Z,5.83
2023-03-01T14:01:35.912Z,5.87
2023-03-01T14:03:43.547Z,5.83
2023-03-01T14:06:12.662Z,5.69
2023-03-01T14:08:22.727Z,5.70
2023-03-01T14:10:33.033Z,5.80
2023-03-01T14:12:52.148Z,5.81
2023-03-01T14:15:19.922Z,5.93
2023-03-01T14:17:30.803Z,5.80
2023-03-01T14:19:34.400Z,5.79
2023-03-01T14:21:37.626Z,5.85
2023-03-01T14:23:40.837Z,5.82
2023-03-01T14:25:59.440Z,5.89
2023-03-01T14:28:19.498Z,5.77
2023-03-01T14:30:44.788Z,5.84
2023-03-01T14:33:04.048Z,5.90
2023-03-01T14:35:21.776Z,5.75
2023-03-01T14:37:31.124Z,5.70
2023-03-01T14:39:33.667Z,6.06
2023-03-01T14:41:37.453Z,5.81
2023-03-01T14:43:44.482Z,5.86
2023-03-01T14:45:51.854Z,5.91
2023-03-01T14:47:54.610Z,5.69
2023-03-01T14:50:27.968Z,5.87
2023-03-01T14:52:50.730Z,5.76
2023-03-01T14:54:56.359Z,5.72
2023-03-01T14:57:02.432Z,5.75
2023-03-01T14:59:04.413Z,5.72
2023-03-01T15:01:06.985Z,5.78
2023-03-01T15:03:34.205Z,5.93
2023-03-01T15:05:37.076Z,5.84
2023-03-01T15:07:50.088Z,5.75
2023-03-01T15:09:52.327Z,5.58
2023-03-01T15:11:54.404Z,5.51
2023-03-01T15:13:56.562Z,5.52
2023-03-01T15:16:07.036Z,5.56
2023-03-01T15:18:22.825Z,5.42
2023-03-01T15:20:30.567Z,5.48
2023-03-01T15:22:32.788Z,5.32
2023-03-01T15:24:37.592Z,5.26
2023-03-01T15:26:43.553Z,5.16
2023-03-01T15:28:52.222Z,5.21
2023-03-01T15:31:16.308Z,4.91
2023-03-01T15:33:32.851Z,4.91
2023-03-01T15:35:49.437Z,4.96
2023-03-01T15:37:51.510Z,4.85
2023-03-01T15:39:58.616Z,4.88
2023-03-01T15:42:01.209Z,4.75
2023-03-01T15:44:18.420Z,4.71
2023-03-01T15:46:28.585Z,4.65
2023-03-01T15:48:31.161Z,4.54
2023-03-01T15:50:35.188Z,4.52
2023-03-01T15:52:42.404Z,4.33
2023-03-01T15:54:44.437Z,4.37
2023-03-01T15:56:46.449Z,4.27
2023-03-01T15:58:48.683Z,4.30
2023-03-01T16:01:00.844Z,4.09
2023-03-01T16:03:04.081Z,4.14
2023-03-01T16:05:06.849Z,4.03
2023-03-01T16:07:11.322Z,4.14
2023-03-01T16:09:13.756Z,3.90
2023-03-01T16:11:21.766Z,3.90
2023-03-01T16:13:24.327Z,3.80
2023-03-01T16:15:31.855Z,3.95
2023-03-01T16:17:35.538Z,3.88
2023-03-01T16:19:39.139Z,3.78
2023-03-01T16:21:41.866Z,3.92
2023-03-01T16:23:45.239Z,3.98
2023-03-01T16:25:47.750Z,3.84
2023-03-01T16:27:52.091Z,3.76
2023-03-01T16:29:54.422Z,3.70
2023-03-01T16:31:57.186Z,3.71
2023-03-01T16:34:00.990Z,3.64
2023-03-01T16:36:09.375Z,3.69
2023-03-01T16:38:12.191Z,3.58
2023-03-01T16:40:27.516Z,3.57
2023-03-01T16:42:29.996Z,3.71
2023-03-01T16:44:32.432Z,3.53
2023-03-01T16:46:34.847Z,3.55
2023-03-01T16:48:37.184Z,3.52
2023-03-01T16:50:39.881Z,3.35
2023-03-01T16:52:42.466Z,3.52
2023-03-01T16:54:44.944Z,3.43
2023-03-01T16:56:48.119Z,3.51
2023-03-01T16:58:50.184Z,3.40
2023-03-01T17:00:55.588Z,3.42
2023-03-01T17:02:59.217Z,3.22
2023-03-01T17:05:01.756Z,3.39
2023-03-01T17:07:04.714Z,3.20
2023-03-01T17:09:06.795Z,3.14
2023-03-01T17:11:16.133Z,3.11
2023-03-01T17:13:18.371Z,3.01
2023-03-01T17:15:22.896Z,2.87
2023-03-01T17:17:25.392Z,3.02
2023-03-01T17:19:28.045Z,3.06
2023-03-01T17:21:30.380Z,2.99
2023-03-01T17:23:37.026Z,2.79
2023-03-01T17:25:45.854Z,2.65
2023-03-01T17:27:50.693Z,2.46
2023-03-01T17:29:54.933Z,2.43
2023-03-01T17:31:59.188Z,2.37
2023-03-01T17:34:02.172Z,2.23
2023-03-01T17:36:06.054Z,2.15
2023-03-01T17:38:08.848Z,2.07
2023-03-01T17:40:12.051Z,2.01
2023-03-01T17:42:14.856Z,2.00
2023-03-01T17:44:17.609Z,1.89
2023-03-01T17:46:19.931Z,1.59
2023-03-01T17:48:26.265Z,1.70
2023-03-01T17:50:29.853Z,1.56
2023-03-01T17:52:33.857Z,1.66
2023-03-01T17:54:37.395Z,1.51
2023-03-01T17:56:41.589Z,1.62
2023-03-01T17:58:43.962Z,1.51
2023-03-01T18:00:48.689Z,1.48
2023-03-01T18:02:50.968Z,1.44
2023-03-01T18:04:54.001Z,1.31
2023-03-01T18:06:57.731Z,1.29
2023-03-01T18:09:01.279Z,1.41
2023-03-01T18:11:03.727Z,1.34
2023-03-01T18:13:06.462Z,1.18
2023-03-01T18:15:09.617Z,1.12
2023-03-01T18:17:14.670Z,1.09
2023-03-01T18:19:17.668Z,1.12
2023-03-01T18:21:21.825Z,1.08
2023-03-01T18:23:27.941Z,1.12
2023-03-01T18:25:31.156Z,1.04
2023-03-01T18:27:34.618Z,0.98
2023-03-01T18:29:39.541Z,1.02
2023-03-01T18:31:42.319Z,0.99
2023-03-01T18:33:46.464Z,0.88
2023-03-01T18:35:52.206Z,1.08
2023-03-01T18:37:55.136Z,1.24
2023-03-01T18:39:58.070Z,1.08
2023-03-01T18:42:01.160Z,0.98
2023-03-01T18:44:07.193Z,0.96
2023-03-01T18:46:10.341Z,1.04
2023-03-01T18:48:15.659Z,1.17
2023-03-01T18:50:20.641Z,1.04
2023-03-01T18:52:23.799Z,0.90
2023-03-01T18:54:26.076Z,0.91
2023-03-01T18:56:36.099Z,0.88
2023-03-01T18:58:40.529Z,0.90
2023-03-01T19:00:45.108Z,0.81
2023-03-01T19:02:49.536Z,0.80
2023-03-01T19:04:52.669Z,0.76
2023-03-01T19:06:55.556Z,0.83
2023-03-01T19:08:58.976Z,0.94
2023-03-01T19:11:03.560Z,0.78
2023-03-01T19:13:06.518Z,0.76
2023-03-01T19:15:10.418Z,0.86
2023-03-01T19:17:13.156Z,0.73
2023-03-01T19:19:15.856Z,0.53
2023-03-01T19:21:20.600Z,0.60
2023-03-01T19:23:24.718Z,0.62
2023-03-01T19:25:29.378Z,0.55
2023-03-01T19:27:31.906Z,0.55
2023-03-01T19:29:35.917Z,0.63
2023-03-01T19:31:40.622Z,0.53
2023-03-01T19:33:44.616Z,0.69
2023-03-01T19:35:51.474Z,0.51
2023-03-01T19:38:00.954Z,0.41
2023-03-01T19:40:03.513Z,0.50
2023-03-01T19:42:06.500Z,0.42
2023-03-01T19:44:09.695Z,0.38
2023-03-01T19:46:13.474Z,0.30
2023-03-01T19:48:16.530Z,0.26
2023-03-01T19:50:19.452Z,0.16
2023-03-01T19:52:22.418Z,0.10
2023-03-01T19:54:25.476Z,0.11
2023-03-01T19:56:29.473Z,0.20
2023-03-01T19:58:35.638Z,0.08
2023-03-01T20:00:40.725Z,0.12
2023-03-01T20:02:44.452Z,-0.02
2023-03-01T20:04:46.894Z,-0.12
2023-03-01T20:06:52.077Z,-0.22
2023-03-01T20:08:54.328Z,-0.33
2023-03-01T20:11:06.770Z,-0.49
2023-03-01T20:13:09.816Z,-0.52
2023-03-01T20:15:12.862Z,-0.64
2023-03-01T20:17:20.647Z,-0.51
2023-03-01T20:19:23.560Z,-0.54
2023-03-01T20:21:27.763Z,-0.58
2023-03-01T20:23:30.761Z,-0.74
2023-03-01T20:25:33.907Z,-0.99
2023-03-01T20:27:37.929Z,-0.88
2023-03-01T20:29:42.174Z,-0.65
2023-03-01T20:31:47.095Z,-0.63
2023-03-01T20:33:50.843Z,-0.50
2023-03-01T20:35:55.114Z,-0.66
2023-03-01T20:37:58.161Z,-0.91
2023-03-01T20:40:01.093Z,-0.83
2023-03-01T20:42:04.290Z,-0.99
2023-03-01T20:44:07.471Z,-0.90
2023-03-01T20:46:17.801Z,-0.96
2023-03-01T20:48:21.776Z,-0.94
2023-03-01T20:50:24.597Z,-0.89
2023-03-01T20:52:32.330Z,-0.95
2023-03-01T20:54:41.921Z,-0.87
2023-03-01T20:56:44.551Z,-0.79
2023-03-01T20:58:48.278Z,-0.79
2023-03-01T21:00:54.149Z,-0.80
2023-03-01T21:02:57.310Z,-0.88
2023-03-01T21:05:00.290Z,-0.68
2023-03-01T21:07:12.058Z,-0.81
2023-03-01T21:09:14.721Z,-0.74
2023-03-01T21:11:18.819Z,-0.64
2023-03-01T21:13:24.769Z,-0.78
2023-03-01T21:15:30.926Z,-0.74
2023-03-01T21:17:33.664Z,-0.74
2023-03-01T21:19:43.934Z,-0.72
2023-03-01T21:21:46.899Z,-0.71
2023-03-01T21:23:49.638Z,-0.72
2023-03-01T21:26:25.906Z,-0.73
2023-03-01T21:28:32.553Z,-0.84
2023-03-01T21:30:37.382Z,-0.81
2023-03-01T21:32:40.716Z,-0.76
2023-03-01T21:34:42.736Z,-0.77
2023-03-01T21:36:45.217Z,-0.76
2023-03-01T21:38:49.229Z,-0.94
2023-03-01T21:41:00.563Z,-0.95
2023-03-01T21:43:03.718Z,-1.03
2023-03-01T21:45:11.421Z,-1.00
2023-03-01T21:47:19.811Z,-1.11
2023-03-01T21:49:24.936Z,-1.15
2023-03-01T21:51:28.781Z,-1.01
2023-03-01T21:53:36.573Z,-1.19
2023-03-01T21:55:38.668Z,-1.44
2023-03-01T21:57:43.975Z,-1.44
2023-03-01T21:59:47.845Z,-1.61
2023-03-01T22:01:51.447Z,-1.58
2023-03-01T22:03:54.021Z,-1.61
2023-03-01T22:06:00.115Z,-1.65
2023-03-01T22:08:03.678Z,-1.55
2023-03-01T22:10:12.082Z,-1.43
2023-03-01T22:12:14.023Z,-1.41
2023-03-01T22:14:18.972Z,-1.43
2023-03-01T22:16:24.983Z,-1.51
2023-03-01T22:18:28.108Z,-1.40
2023-03-01T22:20:30.094Z,-1.40
2023-03-01T22:22:33.768Z,-1.34
2023-03-01T22:24:35.775Z,-1.35
2023-03-01T22:26:45.801Z,-1.38
2023-03-01T22:28:56.479Z,-1.78
2023-03-01T22:30:58.494Z,-1.95
2023-03-01T22:33:05.518Z,-2.06
2023-03-01T22:35:08.087Z,-2.01
2023-03-01T22:37:16.218Z,-1.78
2023-03-01T22:39:21.956Z,-1.47
2023-03-01T22:41:23.867Z,-1.77
2023-03-01T22:43:37.269Z,-2.64
2023-03-01T22:45:41.255Z,-2.61
2023-03-01T22:47:43.217Z,-2.33
2023-03-01T22:49:45.175Z,-2.57
2023-03-01T22:51:49.903Z,-2.32
2023-03-01T22:53:53.532Z,-2.08
2023-03-01T22:55:55.518Z,-1.98
2023-03-01T22:57:58.468Z,-1.80
2023-03-01T23:00:05.899Z,-1.90
2023-03-01T23:02:08.055Z,-2.03
2023-03-01T23:04:19.942Z,-1.91
2023-03-01T23:06:50.653Z,-1.91
2023-03-01T23:08:55.290Z,-1.82
2023-03-01T23:11:02.244Z,-1.82
2023-03-01T23:13:09.608Z,-1.76
2023-03-01T23:15:12.217Z,-1.78
2023-03-01T23:17:18.276Z,-1.71
2023-03-01T23:19:26.582Z,-1.52
2023-03-01T23:21:28.577Z,-1.62
2023-03-01T23:23:31.482Z,-1.92
2023-03-01T23:25:40.941Z,-1.89
2023-03-01T23:27:49.879Z,-1.80
2023-03-01T23:29:53.261Z,-1.77
2023-03-01T23:32:00.225Z,-1.70
2023-03-01T23:34:06.389Z,-1.83
2023-03-01T23:36:19.642Z,-1.76
2023-03-01T23:38:21.707Z,-1.83
2023-03-01T23:40:29.626Z,-1.78
2023-03-01T23:42:34.481Z,-2.12
2023-03-01T23:44:41.684Z,-2.28
2023-03-01T23:46:53.612Z,-2.26
2023-03-01T23:48:57.783Z,-2.62
2023-03-01T23:51:05.315Z,-2.72
2023-03-01T23:53:13.828Z,-2.85
2023-03-01T23:55:22.082Z,-2.62
2023-03-01T23:57:46.637Z,-2.71
2023-03-01T23:59:54.741Z,-2.78
